sensor_id;sensor_type;location;lat;lon;timestamp;temperature;humidity
36924;DHT22;22841;50.252;18.688;2023-07-29T00:00:34;16.70;99.90
36924;DHT22;22841;50.252;18.688;2023-07-29T00:03:00;16.80;99.90
36924;DHT22;22841;50.252;18.688;2023-07-29T00:05:26;16.90;99.90
36924;DHT22;22841;50.252;18.688;2023-07-29T00:07:53;16.80;99.90
36924;DHT22;22841;50.252;18.688;2023-07-29T00:10:19;16.80;99.90
36924;DHT22;22841;50.252;18.688;2023-07-29T00:12:45;16.90;99.90
36924;DHT22;22841;50.252;18.688;2023-07-29T00:15:11;16.80;99.90
36924;DHT22;22841;50.252;18.688;2023-07-29T00:17:37;16.80;99.90
36924;DHT22;22841;50.252;18.688;2023-07-29T00:20:04;16.80;99.90
36924;DHT22;22841;50.252;18.688;2023-07-29T00:22:31;16.80;99.90
36924;DHT22;22841;50.252;18.688;2023-07-29T00:24:57;16.70;99.90
36924;DHT22;22841;50.252;18.688;2023-07-29T00:27:23;16.60;99.90
36924;DHT22;22841;50.252;18.688;2023-07-29T00:29:50;16.70;99.90
36924;DHT22;22841;50.252;18.688;2023-07-29T00:32:16;16.80;99.90
36924;DHT22;22841;50.252;18.688;2023-07-29T00:34:42;16.80;99.90
36924;DHT22;22841;50.252;18.688;2023-07-29T00:37:08;16.90;99.90
36924;DHT22;22841;50.252;18.688;2023-07-29T00:39:34;16.90;99.90
36924;DHT22;22841;50.252;18.688;2023-07-29T00:42:00;16.80;99.90
36924;DHT22;22841;50.252;18.688;2023-07-29T00:44:26;16.80;99.90
36924;DHT22;22841;50.252;18.688;2023-07-29T00:46:52;16.80;99.90
36924;DHT22;22841;50.252;18.688;2023-07-29T00:49:20;16.80;99.90
36924;DHT22;22841;50.252;18.688;2023-07-29T00:51:46;16.90;99.90
36924;DHT22;22841;50.252;18.688;2023-07-29T00:54:13;16.90;99.90
36924;DHT22;22841;50.252;18.688;2023-07-29T00:56:40;16.80;99.90
36924;DHT22;22841;50.252;18.688;2023-07-29T00:59:06;16.90;99.90
36924;DHT22;22841;50.252;18.688;2023-07-29T01:01:32;16.90;99.90
36924;DHT22;22841;50.252;18.688;2023-07-29T01:03:59;16.90;99.90
36924;DHT22;22841;50.252;18.688;2023-07-29T01:06:50;16.90;99.90
36924;DHT22;22841;50.252;18.688;2023-07-29T01:09:44;16.90;99.90
36924;DHT22;22841;50.252;18.688;2023-07-29T01:12:29;16.90;99.90
36924;DHT22;22841;50.252;18.688;2023-07-29T01:17:48;16.90;99.90
36924;DHT22;22841;50.252;18.688;2023-07-29T01:20:16;16.90;99.90
36924;DHT22;22841;50.252;18.688;2023-07-29T01:22:43;16.90;99.90
36924;DHT22;22841;50.252;18.688;2023-07-29T01:25:09;16.90;99.90
36924;DHT22;22841;50.252;18.688;2023-07-29T01:27:35;16.90;99.90
36924;DHT22;22841;50.252;18.688;2023-07-29T01:30:02;16.90;99.90
36924;DHT22;22841;50.252;18.688;2023-07-29T01:38:07;16.90;99.90
36924;DHT22;22841;50.252;18.688;2023-07-29T01:40:35;16.90;99.90
36924;DHT22;22841;50.252;18.688;2023-07-29T01:43:01;17.00;99.90
36924;DHT22;22841;50.252;18.688;2023-07-29T01:45:29;16.90;99.90
36924;DHT22;22841;50.252;18.688;2023-07-29T01:47:57;16.90;99.90
36924;DHT22;22841;50.252;18.688;2023-07-29T01:50:23;16.90;99.90
36924;DHT22;22841;50.252;18.688;2023-07-29T01:52:49;16.90;99.90
36924;DHT22;22841;50.252;18.688;2023-07-29T01:55:15;16.90;99.90
36924;DHT22;22841;50.252;18.688;2023-07-29T01:57:42;16.90;99.90
36924;DHT22;22841;50.252;18.688;2023-07-29T02:00:10;16.90;99.90
36924;DHT22;22841;50.252;18.688;2023-07-29T02:02:37;16.90;99.90
36924;DHT22;22841;50.252;18.688;2023-07-29T02:05:03;16.90;99.90
36924;DHT22;22841;50.252;18.688;2023-07-29T02:07:29;16.80;99.90
36924;DHT22;22841;50.252;18.688;2023-07-29T02:09:55;16.90;99.90
36924;DHT22;22841;50.252;18.688;2023-07-29T02:12:21;16.80;99.90
36924;DHT22;22841;50.252;18.688;2023-07-29T02:14:47;16.80;99.90
36924;DHT22;22841;50.252;18.688;2023-07-29T02:17:14;16.80;99.90
36924;DHT22;22841;50.252;18.688;2023-07-29T02:19:40;16.80;99.90
36924;DHT22;22841;50.252;18.688;2023-07-29T02:22:06;16.80;99.90
36924;DHT22;22841;50.252;18.688;2023-07-29T02:24:32;16.80;99.90
36924;DHT22;22841;50.252;18.688;2023-07-29T02:26:58;16.80;99.90
36924;DHT22;22841;50.252;18.688;2023-07-29T02:29:24;16.80;99.90
36924;DHT22;22841;50.252;18.688;2023-07-29T02:31:51;16.80;99.90
36924;DHT22;22841;50.252;18.688;2023-07-29T02:34:17;16.80;99.90
36924;DHT22;22841;50.252;18.688;2023-07-29T02:36:43;16.80;99.90
36924;DHT22;22841;50.252;18.688;2023-07-29T02:39:09;16.80;99.90
36924;DHT22;22841;50.252;18.688;2023-07-29T02:41:35;16.70;99.90
36924;DHT22;22841;50.252;18.688;2023-07-29T02:44:01;16.70;99.90
36924;DHT22;22841;50.252;18.688;2023-07-29T02:46:27;16.70;99.90
36924;DHT22;22841;50.252;18.688;2023-07-29T02:48:53;16.50;99.90
36924;DHT22;22841;50.252;18.688;2023-07-29T02:51:20;16.50;99.90
36924;DHT22;22841;50.252;18.688;2023-07-29T02:53:46;16.50;99.90
36924;DHT22;22841;50.252;18.688;2023-07-29T02:56:12;16.50;99.90
36924;DHT22;22841;50.252;18.688;2023-07-29T02:58:38;16.40;99.90
36924;DHT22;22841;50.252;18.688;2023-07-29T03:01:05;16.20;99.90
36924;DHT22;22841;50.252;18.688;2023-07-29T03:03:32;16.20;99.90
36924;DHT22;22841;50.252;18.688;2023-07-29T03:06:06;16.30;99.90
36924;DHT22;22841;50.252;18.688;2023-07-29T03:08:32;16.40;99.90
36924;DHT22;22841;50.252;18.688;2023-07-29T03:10:58;16.40;99.90
36924;DHT22;22841;50.252;18.688;2023-07-29T03:13:25;16.40;99.90
36924;DHT22;22841;50.252;18.688;2023-07-29T03:15:51;16.50;99.90
36924;DHT22;22841;50.252;18.688;2023-07-29T03:18:17;16.40;99.90
36924;DHT22;22841;50.252;18.688;2023-07-29T03:20:43;16.20;99.90
36924;DHT22;22841;50.252;18.688;2023-07-29T03:23:09;16.30;99.90
36924;DHT22;22841;50.252;18.688;2023-07-29T03:25:35;16.30;99.90
36924;DHT22;22841;50.252;18.688;2023-07-29T03:28:01;16.40;99.90
36924;DHT22;22841;50.252;18.688;2023-07-29T03:30:27;16.40;99.90
36924;DHT22;22841;50.252;18.688;2023-07-29T03:32:53;16.40;99.90
36924;DHT22;22841;50.252;18.688;2023-07-29T03:35:20;16.40;99.90
36924;DHT22;22841;50.252;18.688;2023-07-29T03:37:46;16.40;99.90
36924;DHT22;22841;50.252;18.688;2023-07-29T03:40:13;16.30;99.90
36924;DHT22;22841;50.252;18.688;2023-07-29T03:42:39;16.20;99.90
36924;DHT22;22841;50.252;18.688;2023-07-29T03:45:06;16.30;99.90
36924;DHT22;22841;50.252;18.688;2023-07-29T03:47:32;16.20;99.90
36924;DHT22;22841;50.252;18.688;2023-07-29T03:49:58;16.30;99.90
36924;DHT22;22841;50.252;18.688;2023-07-29T03:52:24;16.30;99.90
36924;DHT22;22841;50.252;18.688;2023-07-29T03:54:50;16.40;99.90
36924;DHT22;22841;50.252;18.688;2023-07-29T03:57:16;16.40;99.90
36924;DHT22;22841;50.252;18.688;2023-07-29T03:59:42;16.50;99.90
36924;DHT22;22841;50.252;18.688;2023-07-29T04:02:33;16.50;99.90
36924;DHT22;22841;50.252;18.688;2023-07-29T04:05:25;16.60;99.90
36924;DHT22;22841;50.252;18.688;2023-07-29T04:08:16;16.60;99.90
36924;DHT22;22841;50.252;18.688;2023-07-29T04:11:07;16.70;99.90
36924;DHT22;22841;50.252;18.688;2023-07-29T04:13:35;16.70;99.90
36924;DHT22;22841;50.252;18.688;2023-07-29T04:16:04;16.80;99.90
36924;DHT22;22841;50.252;18.688;2023-07-29T04:18:30;16.80;99.90
36924;DHT22;22841;50.252;18.688;2023-07-29T04:20:57;16.90;99.90
36924;DHT22;22841;50.252;18.688;2023-07-29T04:23:23;16.90;99.90
36924;DHT22;22841;50.252;18.688;2023-07-29T04:25:49;17.00;99.90
36924;DHT22;22841;50.252;18.688;2023-07-29T04:28:15;17.00;99.90
36924;DHT22;22841;50.252;18.688;2023-07-29T04:30:42;17.10;99.90
36924;DHT22;22841;50.252;18.688;2023-07-29T04:33:08;17.10;99.90
36924;DHT22;22841;50.252;18.688;2023-07-29T04:35:34;17.20;99.90
36924;DHT22;22841;50.252;18.688;2023-07-29T04:38:00;17.20;99.90
36924;DHT22;22841;50.252;18.688;2023-07-29T04:40:26;17.20;99.90
36924;DHT22;22841;50.252;18.688;2023-07-29T04:49:28;17.40;99.90
36924;DHT22;22841;50.252;18.688;2023-07-29T04:51:54;17.40;99.90
36924;DHT22;22841;50.252;18.688;2023-07-29T04:54:20;17.50;99.90
36924;DHT22;22841;50.252;18.688;2023-07-29T04:56:47;17.50;99.90
36924;DHT22;22841;50.252;18.688;2023-07-29T04:59:13;17.60;99.90
36924;DHT22;22841;50.252;18.688;2023-07-29T05:01:39;17.60;99.90
36924;DHT22;22841;50.252;18.688;2023-07-29T05:04:05;17.60;99.90
36924;DHT22;22841;50.252;18.688;2023-07-29T05:06:32;17.70;99.90
36924;DHT22;22841;50.252;18.688;2023-07-29T05:08:58;17.70;99.90
36924;DHT22;22841;50.252;18.688;2023-07-29T05:11:24;17.80;99.90
36924;DHT22;22841;50.252;18.688;2023-07-29T05:13:51;17.80;99.90
36924;DHT22;22841;50.252;18.688;2023-07-29T05:16:17;17.90;99.90
36924;DHT22;22841;50.252;18.688;2023-07-29T05:18:43;17.90;99.90
36924;DHT22;22841;50.252;18.688;2023-07-29T05:21:09;17.90;99.90
36924;DHT22;22841;50.252;18.688;2023-07-29T05:23:37;17.90;99.90
36924;DHT22;22841;50.252;18.688;2023-07-29T05:26:03;17.90;99.90
36924;DHT22;22841;50.252;18.688;2023-07-29T05:28:29;18.00;99.90
36924;DHT22;22841;50.252;18.688;2023-07-29T05:30:55;18.00;99.90
36924;DHT22;22841;50.252;18.688;2023-07-29T05:33:21;18.10;99.90
36924;DHT22;22841;50.252;18.688;2023-07-29T05:35:47;18.00;99.90
36924;DHT22;22841;50.252;18.688;2023-07-29T05:38:13;18.10;99.90
36924;DHT22;22841;50.252;18.688;2023-07-29T05:40:39;18.10;99.90
36924;DHT22;22841;50.252;18.688;2023-07-29T05:43:05;18.20;99.90
36924;DHT22;22841;50.252;18.688;2023-07-29T05:45:32;18.20;99.90
36924;DHT22;22841;50.252;18.688;2023-07-29T05:47:58;18.20;99.90
36924;DHT22;22841;50.252;18.688;2023-07-29T05:50:24;18.30;99.90
36924;DHT22;22841;50.252;18.688;2023-07-29T05:52:50;18.40;99.90
36924;DHT22;22841;50.252;18.688;2023-07-29T05:55:16;18.40;99.90
36924;DHT22;22841;50.252;18.688;2023-07-29T05:57:42;18.40;99.90
36924;DHT22;22841;50.252;18.688;2023-07-29T06:00:09;18.50;99.90
36924;DHT22;22841;50.252;18.688;2023-07-29T06:02:35;18.40;99.90
36924;DHT22;22841;50.252;18.688;2023-07-29T06:05:01;18.50;99.90
36924;DHT22;22841;50.252;18.688;2023-07-29T06:07:28;18.40;99.90
36924;DHT22;22841;50.252;18.688;2023-07-29T06:09:56;18.50;99.90
36924;DHT22;22841;50.252;18.688;2023-07-29T06:12:23;18.50;99.90
36924;DHT22;22841;50.252;18.688;2023-07-29T06:14:49;18.60;99.90
36924;DHT22;22841;50.252;18.688;2023-07-29T06:17:15;18.60;99.90
36924;DHT22;22841;50.252;18.688;2023-07-29T06:19:41;18.70;99.90
36924;DHT22;22841;50.252;18.688;2023-07-29T06:22:09;18.70;99.90
36924;DHT22;22841;50.252;18.688;2023-07-29T06:24:35;18.80;99.90
36924;DHT22;22841;50.252;18.688;2023-07-29T06:27:01;18.90;99.90
36924;DHT22;22841;50.252;18.688;2023-07-29T06:29:27;19.00;99.90
36924;DHT22;22841;50.252;18.688;2023-07-29T06:31:53;19.00;99.90
36924;DHT22;22841;50.252;18.688;2023-07-29T06:34:20;19.00;99.90
36924;DHT22;22841;50.252;18.688;2023-07-29T06:36:47;19.10;99.90
36924;DHT22;22841;50.252;18.688;2023-07-29T06:39:13;19.10;99.90
36924;DHT22;22841;50.252;18.688;2023-07-29T06:41:39;19.10;99.90
36924;DHT22;22841;50.252;18.688;2023-07-29T06:44:05;19.00;99.90
36924;DHT22;22841;50.252;18.688;2023-07-29T06:46:32;19.00;99.90
36924;DHT22;22841;50.252;18.688;2023-07-29T06:48:58;19.00;99.90
36924;DHT22;22841;50.252;18.688;2023-07-29T06:51:24;18.90;99.90
36924;DHT22;22841;50.252;18.688;2023-07-29T06:53:50;18.90;99.90
36924;DHT22;22841;50.252;18.688;2023-07-29T06:56:16;18.90;99.90
36924;DHT22;22841;50.252;18.688;2023-07-29T06:58:42;18.90;99.90
36924;DHT22;22841;50.252;18.688;2023-07-29T07:01:08;19.00;99.90
36924;DHT22;22841;50.252;18.688;2023-07-29T07:03:34;19.00;99.90
36924;DHT22;22841;50.252;18.688;2023-07-29T07:06:00;19.10;99.90
36924;DHT22;22841;50.252;18.688;2023-07-29T07:08:26;19.20;99.90
36924;DHT22;22841;50.252;18.688;2023-07-29T07:10:52;19.20;99.90
36924;DHT22;22841;50.252;18.688;2023-07-29T07:13:18;19.30;99.90
36924;DHT22;22841;50.252;18.688;2023-07-29T07:15:44;19.40;99.90
36924;DHT22;22841;50.252;18.688;2023-07-29T07:18:11;19.60;99.90
36924;DHT22;22841;50.252;18.688;2023-07-29T07:20:37;19.80;99.90
36924;DHT22;22841;50.252;18.688;2023-07-29T07:23:03;20.00;99.90
36924;DHT22;22841;50.252;18.688;2023-07-29T07:25:31;20.20;99.90
36924;DHT22;22841;50.252;18.688;2023-07-29T07:27:57;20.40;99.90
36924;DHT22;22841;50.252;18.688;2023-07-29T07:30:23;20.50;99.90
36924;DHT22;22841;50.252;18.688;2023-07-29T07:32:49;20.60;99.90
36924;DHT22;22841;50.252;18.688;2023-07-29T07:35:16;20.60;99.90
36924;DHT22;22841;50.252;18.688;2023-07-29T07:37:42;20.60;99.90
36924;DHT22;22841;50.252;18.688;2023-07-29T07:40:09;20.50;99.90
36924;DHT22;22841;50.252;18.688;2023-07-29T07:42:35;20.60;99.90
36924;DHT22;22841;50.252;18.688;2023-07-29T07:45:01;20.60;99.90
36924;DHT22;22841;50.252;18.688;2023-07-29T07:47:27;20.60;99.90
36924;DHT22;22841;50.252;18.688;2023-07-29T07:49:53;20.50;99.90
36924;DHT22;22841;50.252;18.688;2023-07-29T07:52:19;20.70;99.90
36924;DHT22;22841;50.252;18.688;2023-07-29T07:54:45;20.70;99.90
36924;DHT22;22841;50.252;18.688;2023-07-29T07:57:11;20.70;99.90
36924;DHT22;22841;50.252;18.688;2023-07-29T07:59:37;20.80;99.90
36924;DHT22;22841;50.252;18.688;2023-07-29T08:02:04;20.70;99.90
36924;DHT22;22841;50.252;18.688;2023-07-29T08:04:30;20.80;99.90
36924;DHT22;22841;50.252;18.688;2023-07-29T08:06:56;20.80;99.90
36924;DHT22;22841;50.252;18.688;2023-07-29T08:09:48;20.90;99.90
36924;DHT22;22841;50.252;18.688;2023-07-29T08:12:38;20.90;99.90
36924;DHT22;22841;50.252;18.688;2023-07-29T08:15:29;21.00;99.90
36924;DHT22;22841;50.252;18.688;2023-07-29T08:18:20;21.10;99.90
36924;DHT22;22841;50.252;18.688;2023-07-29T08:21:12;21.20;99.90
36924;DHT22;22841;50.252;18.688;2023-07-29T08:24:02;21.50;99.90
36924;DHT22;22841;50.252;18.688;2023-07-29T08:26:29;21.70;99.90
36924;DHT22;22841;50.252;18.688;2023-07-29T08:28:55;21.90;99.90
36924;DHT22;22841;50.252;18.688;2023-07-29T08:31:21;22.00;99.90
36924;DHT22;22841;50.252;18.688;2023-07-29T08:33:47;22.00;99.90
36924;DHT22;22841;50.252;18.688;2023-07-29T08:36:13;22.10;99.90
36924;DHT22;22841;50.252;18.688;2023-07-29T08:38:39;22.10;99.90
36924;DHT22;22841;50.252;18.688;2023-07-29T08:43:39;22.10;99.90
36924;DHT22;22841;50.252;18.688;2023-07-29T08:46:09;22.10;99.90
36924;DHT22;22841;50.252;18.688;2023-07-29T08:48:42;21.80;1.00
36924;DHT22;22841;50.252;18.688;2023-07-29T08:51:10;22.00;99.90
36924;DHT22;22841;50.252;18.688;2023-07-29T08:53:37;22.20;99.90
36924;DHT22;22841;50.252;18.688;2023-07-29T08:56:29;22.50;99.90
36924;DHT22;22841;50.252;18.688;2023-07-29T08:58:56;22.80;1.00
36924;DHT22;22841;50.252;18.688;2023-07-29T09:01:22;23.00;99.90
36924;DHT22;22841;50.252;18.688;2023-07-29T09:03:48;23.00;87.30
36924;DHT22;22841;50.252;18.688;2023-07-29T09:09:57;23.00;17.30
36924;DHT22;22841;50.252;18.688;2023-07-29T09:12:23;22.80;1.00
36924;DHT22;22841;50.252;18.688;2023-07-29T09:14:52;22.80;62.70
36924;DHT22;22841;50.252;18.688;2023-07-29T09:17:20;22.70;99.90
36924;DHT22;22841;50.252;18.688;2023-07-29T09:19:49;22.80;99.90
36924;DHT22;22841;50.252;18.688;2023-07-29T09:22:19;22.70;99.90
36924;DHT22;22841;50.252;18.688;2023-07-29T09:24:46;22.60;1.00
36924;DHT22;22841;50.252;18.688;2023-07-29T09:27:27;22.50;1.00
36924;DHT22;22841;50.252;18.688;2023-07-29T09:29:54;22.40;99.90
36924;DHT22;22841;50.252;18.688;2023-07-29T09:32:21;22.50;99.90
36924;DHT22;22841;50.252;18.688;2023-07-29T09:34:47;22.70;89.40
36924;DHT22;22841;50.252;18.688;2023-07-29T09:37:20;22.70;1.00
36924;DHT22;22841;50.252;18.688;2023-07-29T09:39:48;22.60;1.00
36924;DHT22;22841;50.252;18.688;2023-07-29T09:42:22;22.60;99.90
36924;DHT22;22841;50.252;18.688;2023-07-29T09:44:50;22.70;1.00
36924;DHT22;22841;50.252;18.688;2023-07-29T09:47:25;22.80;99.90
36924;DHT22;22841;50.252;18.688;2023-07-29T09:49:52;22.80;99.90
36924;DHT22;22841;50.252;18.688;2023-07-29T09:52:20;22.80;99.90
36924;DHT22;22841;50.252;18.688;2023-07-29T09:54:47;22.80;99.90
36924;DHT22;22841;50.252;18.688;2023-07-29T09:57:14;23.00;99.90
36924;DHT22;22841;50.252;18.688;2023-07-29T09:59:41;23.10;99.90
36924;DHT22;22841;50.252;18.688;2023-07-29T10:02:13;23.40;99.90
36924;DHT22;22841;50.252;18.688;2023-07-29T10:04:42;23.70;99.90
36924;DHT22;22841;50.252;18.688;2023-07-29T10:07:10;23.90;99.90
36924;DHT22;22841;50.252;18.688;2023-07-29T10:12:54;23.90;1.00
36924;DHT22;22841;50.252;18.688;2023-07-29T10:15:21;23.90;20.80
36924;DHT22;22841;50.252;18.688;2023-07-29T10:17:48;23.90;23.30
36924;DHT22;22841;50.252;18.688;2023-07-29T10:20:16;24.00;99.90
36924;DHT22;22841;50.252;18.688;2023-07-29T10:22:44;24.00;39.90
36924;DHT22;22841;50.252;18.688;2023-07-29T10:25:16;23.90;1.00
36924;DHT22;22841;50.252;18.688;2023-07-29T10:28:05;23.90;99.90
36924;DHT22;22841;50.252;18.688;2023-07-29T10:30:32;24.00;1.00
36924;DHT22;22841;50.252;18.688;2023-07-29T10:43:42;24.20;1.00
36924;DHT22;22841;50.252;18.688;2023-07-29T10:45:49;24.30;25.20
36924;DHT22;22841;50.252;18.688;2023-07-29T10:51:24;24.40;1.00
36924;DHT22;22841;50.252;18.688;2023-07-29T10:54:03;24.40;18.10
36924;DHT22;22841;50.252;18.688;2023-07-29T10:56:34;24.40;1.00
36924;DHT22;22841;50.252;18.688;2023-07-29T11:01:50;24.40;1.00
36924;DHT22;22841;50.252;18.688;2023-07-29T11:09:40;24.30;99.90
36924;DHT22;22841;50.252;18.688;2023-07-29T11:12:35;24.40;99.90
36924;DHT22;22841;50.252;18.688;2023-07-29T11:17:37;24.10;99.90
36924;DHT22;22841;50.252;18.688;2023-07-29T11:20:05;24.00;99.90
36924;DHT22;22841;50.252;18.688;2023-07-29T11:22:31;24.00;1.00
36924;DHT22;22841;50.252;18.688;2023-07-29T11:24:57;24.30;99.90
36924;DHT22;22841;50.252;18.688;2023-07-29T11:27:23;24.50;67.40
36924;DHT22;22841;50.252;18.688;2023-07-29T11:29:49;24.40;99.90
36924;DHT22;22841;50.252;18.688;2023-07-29T11:32:16;24.40;87.90
36924;DHT22;22841;50.252;18.688;2023-07-29T11:34:42;24.50;82.60
36924;DHT22;22841;50.252;18.688;2023-07-29T11:37:10;24.60;98.80
36924;DHT22;22841;50.252;18.688;2023-07-29T11:39:44;24.60;63.40
36924;DHT22;22841;50.252;18.688;2023-07-29T11:42:12;24.80;99.90
36924;DHT22;22841;50.252;18.688;2023-07-29T11:44:38;24.80;90.50
36924;DHT22;22841;50.252;18.688;2023-07-29T11:47:08;24.70;5.10
36924;DHT22;22841;50.252;18.688;2023-07-29T11:49:35;24.80;1.00
36924;DHT22;22841;50.252;18.688;2023-07-29T11:52:07;24.90;36.10
36924;DHT22;22841;50.252;18.688;2023-07-29T11:54:35;24.90;1.00
36924;DHT22;22841;50.252;18.688;2023-07-29T11:57:01;25.00;30.20
36924;DHT22;22841;50.252;18.688;2023-07-29T11:59:27;25.20;1.00
36924;DHT22;22841;50.252;18.688;2023-07-29T12:01:54;25.20;1.00
36924;DHT22;22841;50.252;18.688;2023-07-29T12:04:20;25.40;99.90
36924;DHT22;22841;50.252;18.688;2023-07-29T12:06:46;25.30;99.90
36924;DHT22;22841;50.252;18.688;2023-07-29T12:09:13;25.40;99.90
36924;DHT22;22841;50.252;18.688;2023-07-29T12:11:40;25.40;99.90
36924;DHT22;22841;50.252;18.688;2023-07-29T12:14:07;25.30;1.00
36924;DHT22;22841;50.252;18.688;2023-07-29T12:16:43;25.00;1.00
36924;DHT22;22841;50.252;18.688;2023-07-29T12:19:13;24.80;34.80
36924;DHT22;22841;50.252;18.688;2023-07-29T12:21:41;24.70;99.90
36924;DHT22;22841;50.252;18.688;2023-07-29T12:24:08;24.70;99.90
36924;DHT22;22841;50.252;18.688;2023-07-29T12:26:36;24.60;99.90
36924;DHT22;22841;50.252;18.688;2023-07-29T12:29:15;24.70;99.90
36924;DHT22;22841;50.252;18.688;2023-07-29T12:31:42;24.70;80.20
36924;DHT22;22841;50.252;18.688;2023-07-29T12:34:08;24.70;99.90
36924;DHT22;22841;50.252;18.688;2023-07-29T12:36:51;24.70;99.90
36924;DHT22;22841;50.252;18.688;2023-07-29T12:39:28;24.70;95.10
36924;DHT22;22841;50.252;18.688;2023-07-29T12:41:56;24.80;37.70
36924;DHT22;22841;50.252;18.688;2023-07-29T12:44:30;25.00;99.90
36924;DHT22;22841;50.252;18.688;2023-07-29T12:46:56;25.20;99.90
36924;DHT22;22841;50.252;18.688;2023-07-29T12:49:22;25.60;21.70
36924;DHT22;22841;50.252;18.688;2023-07-29T12:51:48;26.00;1.00
36924;DHT22;22841;50.252;18.688;2023-07-29T12:54:15;26.30;99.90
36924;DHT22;22841;50.252;18.688;2023-07-29T12:56:41;26.70;99.90
36924;DHT22;22841;50.252;18.688;2023-07-29T12:59:07;26.90;99.90
36924;DHT22;22841;50.252;18.688;2023-07-29T13:01:33;26.90;99.90
36924;DHT22;22841;50.252;18.688;2023-07-29T13:03:59;27.00;99.90
36924;DHT22;22841;50.252;18.688;2023-07-29T13:06:25;26.90;99.90
36924;DHT22;22841;50.252;18.688;2023-07-29T13:08:52;26.60;99.90
36924;DHT22;22841;50.252;18.688;2023-07-29T13:11:18;26.50;99.90
36924;DHT22;22841;50.252;18.688;2023-07-29T13:14:10;26.30;99.90
36924;DHT22;22841;50.252;18.688;2023-07-29T13:16:36;26.10;99.90
36924;DHT22;22841;50.252;18.688;2023-07-29T13:19:02;26.00;99.90
36924;DHT22;22841;50.252;18.688;2023-07-29T13:21:28;25.80;99.90
36924;DHT22;22841;50.252;18.688;2023-07-29T13:23:54;25.70;99.90
36924;DHT22;22841;50.252;18.688;2023-07-29T13:26:21;25.70;99.90
36924;DHT22;22841;50.252;18.688;2023-07-29T13:28:47;25.70;99.90
36924;DHT22;22841;50.252;18.688;2023-07-29T13:31:13;25.70;99.90
36924;DHT22;22841;50.252;18.688;2023-07-29T13:33:39;25.70;99.90
36924;DHT22;22841;50.252;18.688;2023-07-29T13:36:05;25.70;99.90
36924;DHT22;22841;50.252;18.688;2023-07-29T13:38:32;25.60;99.90
36924;DHT22;22841;50.252;18.688;2023-07-29T13:40:58;25.60;99.90
36924;DHT22;22841;50.252;18.688;2023-07-29T13:43:24;25.40;99.90
36924;DHT22;22841;50.252;18.688;2023-07-29T13:45:50;25.50;99.90
36924;DHT22;22841;50.252;18.688;2023-07-29T13:48:17;25.50;99.90
36924;DHT22;22841;50.252;18.688;2023-07-29T13:50:43;25.50;99.90
36924;DHT22;22841;50.252;18.688;2023-07-29T13:53:10;25.60;99.90
36924;DHT22;22841;50.252;18.688;2023-07-29T13:55:36;25.70;99.90
36924;DHT22;22841;50.252;18.688;2023-07-29T13:58:02;25.60;99.90
36924;DHT22;22841;50.252;18.688;2023-07-29T14:00:29;25.60;99.90
36924;DHT22;22841;50.252;18.688;2023-07-29T14:02:55;25.70;99.90
36924;DHT22;22841;50.252;18.688;2023-07-29T14:05:21;25.60;99.90
36924;DHT22;22841;50.252;18.688;2023-07-29T14:07:47;25.50;99.90
36924;DHT22;22841;50.252;18.688;2023-07-29T14:10:13;25.40;99.90
36924;DHT22;22841;50.252;18.688;2023-07-29T14:12:39;25.50;99.90
36924;DHT22;22841;50.252;18.688;2023-07-29T14:15:06;25.60;99.90
36924;DHT22;22841;50.252;18.688;2023-07-29T14:17:32;25.60;99.90
36924;DHT22;22841;50.252;18.688;2023-07-29T14:19:58;25.70;99.90
36924;DHT22;22841;50.252;18.688;2023-07-29T14:22:24;25.90;99.90
36924;DHT22;22841;50.252;18.688;2023-07-29T14:24:51;25.80;99.90
36924;DHT22;22841;50.252;18.688;2023-07-29T14:27:17;25.70;99.90
36924;DHT22;22841;50.252;18.688;2023-07-29T14:29:43;25.50;99.90
36924;DHT22;22841;50.252;18.688;2023-07-29T14:32:09;25.50;99.90
36924;DHT22;22841;50.252;18.688;2023-07-29T14:34:35;25.40;99.90
36924;DHT22;22841;50.252;18.688;2023-07-29T14:37:01;25.40;99.90
36924;DHT22;22841;50.252;18.688;2023-07-29T14:39:27;25.60;99.90
36924;DHT22;22841;50.252;18.688;2023-07-29T14:41:54;25.60;99.90
36924;DHT22;22841;50.252;18.688;2023-07-29T14:44:45;25.50;99.90
36924;DHT22;22841;50.252;18.688;2023-07-29T14:47:36;25.60;99.90
36924;DHT22;22841;50.252;18.688;2023-07-29T14:50:27;25.60;99.90
36924;DHT22;22841;50.252;18.688;2023-07-29T14:53:18;25.50;99.90
36924;DHT22;22841;50.252;18.688;2023-07-29T14:56:09;25.60;99.90
36924;DHT22;22841;50.252;18.688;2023-07-29T14:59:00;25.60;99.90
36924;DHT22;22841;50.252;18.688;2023-07-29T15:01:27;25.70;99.90
36924;DHT22;22841;50.252;18.688;2023-07-29T15:03:53;25.70;99.90
36924;DHT22;22841;50.252;18.688;2023-07-29T15:06:19;25.70;99.90
36924;DHT22;22841;50.252;18.688;2023-07-29T15:08:45;25.70;99.90
36924;DHT22;22841;50.252;18.688;2023-07-29T15:11:12;25.70;99.90
36924;DHT22;22841;50.252;18.688;2023-07-29T15:13:38;25.60;99.90
36924;DHT22;22841;50.252;18.688;2023-07-29T15:16:04;25.60;99.90
36924;DHT22;22841;50.252;18.688;2023-07-29T15:18:30;25.70;99.90
36924;DHT22;22841;50.252;18.688;2023-07-29T15:20:59;25.70;99.90
36924;DHT22;22841;50.252;18.688;2023-07-29T15:23:28;25.70;99.90
36924;DHT22;22841;50.252;18.688;2023-07-29T16:11:50;24.10;99.90
36924;DHT22;22841;50.252;18.688;2023-07-29T16:14:16;24.00;99.90
36924;DHT22;22841;50.252;18.688;2023-07-29T16:16:42;23.90;1.00
36924;DHT22;22841;50.252;18.688;2023-07-29T16:19:08;23.90;1.00
36924;DHT22;22841;50.252;18.688;2023-07-29T16:21:35;23.80;1.40
36924;DHT22;22841;50.252;18.688;2023-07-29T16:24:02;23.80;1.00
36924;DHT22;22841;50.252;18.688;2023-07-29T16:26:28;23.80;1.00
36924;DHT22;22841;50.252;18.688;2023-07-29T16:28:54;23.80;1.00
36924;DHT22;22841;50.252;18.688;2023-07-29T16:31:21;23.80;99.90
36924;DHT22;22841;50.252;18.688;2023-07-29T16:33:47;23.70;99.90
36924;DHT22;22841;50.252;18.688;2023-07-29T16:36:13;23.70;1.00
36924;DHT22;22841;50.252;18.688;2023-07-29T16:38:39;23.70;1.00
36924;DHT22;22841;50.252;18.688;2023-07-29T16:41:06;23.60;99.90
36924;DHT22;22841;50.252;18.688;2023-07-29T16:43:32;23.40;84.80
36924;DHT22;22841;50.252;18.688;2023-07-29T16:45:58;23.20;41.60
36924;DHT22;22841;50.252;18.688;2023-07-29T16:48:24;22.90;98.40
36924;DHT22;22841;50.252;18.688;2023-07-29T16:50:50;22.70;99.90
36924;DHT22;22841;50.252;18.688;2023-07-29T16:53:16;22.60;99.90
36924;DHT22;22841;50.252;18.688;2023-07-29T16:55:43;22.40;1.00
36924;DHT22;22841;50.252;18.688;2023-07-29T16:58:09;22.30;99.90